createdAt,value
2022-09-13T00:01:02.040Z,4.18
2022-09-13T00:03:28.939Z,4.00
2022-09-13T00:05:55.667Z,5.00
2022-09-13T00:08:23.438Z,4.32
2022-09-13T00:10:50.068Z,4.07
2022-09-13T00:13:18.013Z,4.18
2022-09-13T00:15:48.602Z,3.78
2022-09-13T00:18:16.036Z,4.85
2022-09-13T00:20:42.723Z,4.50
2022-09-13T00:23:09.609Z,4.40
2022-09-13T00:25:36.357Z,4.72
2022-09-13T00:28:03.473Z,4.00
2022-09-13T00:30:30.217Z,4.20
2022-09-13T00:32:56.867Z,4.28
2022-09-13T00:35:23.885Z,4.30
2022-09-13T00:37:50.797Z,3.85
2022-09-13T00:40:17.508Z,4.32
2022-09-13T00:42:44.216Z,3.85
2022-09-13T00:45:10.832Z,4.78
2022-09-13T00:47:38.708Z,4.00
2022-09-13T00:50:17.531Z,3.75
2022-09-13T00:52:46.908Z,4.20
2022-09-13T00:55:28.204Z,4.05
2022-09-13T00:57:56.654Z,4.00
2022-09-13T01:00:23.362Z,3.90
2022-09-13T01:02:57.194Z,4.50
2022-09-13T01:05:28.308Z,4.18
2022-09-13T01:07:55.824Z,4.10
2022-09-13T01:10:23.706Z,4.07
2022-09-13T01:12:55.912Z,4.05
2022-09-13T01:15:22.907Z,4.10
2022-09-13T01:17:49.907Z,4.30
2022-09-13T01:20:16.502Z,4.10
2022-09-13T01:23:01.639Z,3.85
2022-09-13T01:25:49.985Z,3.72
2022-09-13T01:31:09.165Z,3.92
2022-09-13T01:33:42.629Z,3.88
2022-09-13T01:36:25.912Z,3.80
2022-09-13T01:39:05.953Z,3.78
2022-09-13T01:42:01.783Z,4.35
2022-09-13T01:45:04.107Z,3.78
2022-09-13T01:47:52.029Z,4.10
2022-09-13T01:50:30.661Z,4.00
2022-09-13T01:53:01.873Z,3.92
2022-09-13T01:55:37.405Z,3.90
2022-09-13T01:58:29.619Z,4.00
2022-09-13T02:01:18.763Z,3.92
2022-09-13T02:03:56.614Z,3.53
2022-09-13T02:06:50.198Z,4.32
2022-09-13T02:09:22.883Z,4.13
2022-09-13T02:11:55.056Z,4.32
2022-09-13T02:14:25.698Z,3.70
2022-09-13T02:17:15.321Z,4.28
2022-09-13T02:19:47.926Z,4.03
2022-09-13T02:22:18.401Z,4.15
2022-09-13T02:24:46.885Z,4.45
2022-09-13T02:29:44.765Z,4.65
2022-09-13T02:32:57.952Z,4.65
2022-09-13T02:35:28.421Z,4.38
2022-09-13T02:38:05.503Z,4.28
2022-09-13T02:40:38.139Z,4.53
2022-09-13T02:43:14.926Z,4.00
2022-09-13T02:45:50.028Z,5.15
2022-09-13T02:48:40.107Z,4.88
2022-09-13T02:51:09.361Z,4.78
2022-09-13T02:53:56.135Z,5.40
2022-09-13T02:56:41.276Z,4.53
2022-09-13T02:59:21.154Z,4.70
2022-09-13T03:01:59.641Z,4.55
2022-09-13T03:04:28.175Z,4.55
2022-09-13T03:09:21.888Z,4.57
2022-09-13T03:11:57.496Z,4.75
2022-09-13T03:14:56.780Z,4.50
2022-09-13T03:17:38.497Z,5.18
2022-09-13T03:20:10.240Z,5.25
2022-09-13T03:22:55.217Z,5.18
2022-09-13T03:25:33.866Z,4.82
2022-09-13T03:28:34.694Z,4.75
2022-09-13T03:31:09.428Z,4.93
2022-09-13T03:33:51.319Z,4.85
2022-09-13T03:36:42.992Z,4.85
2022-09-13T03:39:56.510Z,5.18
2022-09-13T03:42:53.562Z,5.22
2022-09-13T03:45:28.798Z,4.95
2022-09-13T03:47:56.035Z,5.10
2022-09-13T03:50:24.113Z,5.65
2022-09-13T03:52:56.157Z,5.00
2022-09-13T03:55:22.891Z,5.13
2022-09-13T03:57:49.568Z,4.40
2022-09-13T04:00:18.165Z,4.97
2022-09-13T04:05:11.364Z,5.63
2022-09-13T04:07:37.938Z,5.35
2022-09-13T04:10:04.922Z,4.40
2022-09-13T04:12:31.931Z,4.90
2022-09-13T04:14:58.483Z,5.60
2022-09-13T04:17:25.072Z,5.63
2022-09-13T04:19:51.997Z,6.35
2022-09-13T04:22:18.529Z,5.85
2022-09-13T04:24:45.150Z,5.68
2022-09-13T04:27:13.160Z,5.75
2022-09-13T04:29:39.795Z,7.22
2022-09-13T04:32:06.496Z,5.53
2022-09-13T04:34:33.137Z,7.28
2022-09-13T04:36:59.698Z,5.93
2022-09-13T04:39:26.233Z,5.57
2022-09-13T04:41:54.829Z,6.72
2022-09-13T04:44:22.331Z,7.68
2022-09-13T04:46:49.414Z,7.03
2022-09-13T04:49:17.279Z,7.20
2022-09-13T04:51:44.288Z,7.57
2022-09-13T04:54:15.146Z,6.60
2022-09-13T04:56:43.169Z,8.02
2022-09-13T04:59:10.909Z,6.70
2022-09-13T05:01:37.641Z,6.80
2022-09-13T05:04:04.789Z,7.03
2022-09-13T05:06:31.358Z,6.57
2022-09-13T05:08:58.079Z,6.93
2022-09-13T05:11:26.521Z,7.40
2022-09-13T05:13:55.383Z,7.25
2022-09-13T05:16:27.243Z,7.35
2022-09-13T05:18:54.471Z,6.70
2022-09-13T05:21:21.671Z,7.55
2022-09-13T05:23:52.126Z,7.30
2022-09-13T05:26:18.986Z,6.75
2022-09-13T05:28:45.654Z,7.38
2022-09-13T05:31:33.602Z,6.85
2022-09-13T05:34:02.350Z,8.70
2022-09-13T05:36:30.140Z,6.80
2022-09-13T05:39:19.212Z,7.10
2022-09-13T05:41:45.051Z,6.87
2022-09-13T05:44:13.613Z,6.47
2022-09-13T05:46:41.594Z,7.25
2022-09-13T05:49:08.223Z,7.87
2022-09-13T05:51:34.819Z,7.05
2022-09-13T05:54:01.443Z,7.60
2022-09-13T05:56:29.482Z,7.70
2022-09-13T05:58:56.279Z,7.78
2022-09-13T06:01:27.737Z,7.20
2022-09-13T06:03:56.719Z,7.43
2022-09-13T06:06:24.332Z,7.28
2022-09-13T06:08:55.385Z,7.90
2022-09-13T06:11:22.648Z,7.70
2022-09-13T06:13:49.244Z,7.72
2022-09-13T06:16:17.113Z,7.47
2022-09-13T06:18:43.805Z,7.70
2022-09-13T06:21:19.407Z,8.27
2022-09-13T06:23:51.049Z,8.45
2022-09-13T06:26:20.571Z,7.47
2022-09-13T06:28:52.289Z,7.78
2022-09-13T06:31:20.828Z,8.57
2022-09-13T06:36:18.173Z,8.00
2022-09-13T06:38:46.373Z,7.00
2022-09-13T06:41:15.000Z,7.88
2022-09-13T06:46:13.945Z,7.53
2022-09-13T06:48:42.425Z,8.73
2022-09-13T06:53:41.135Z,7.70
2022-09-13T06:56:13.426Z,7.43
2022-09-13T06:58:41.725Z,8.68
2022-09-13T07:01:20.063Z,7.22
2022-09-13T07:06:27.080Z,6.50
2022-09-13T07:08:54.664Z,8.88
2022-09-13T07:11:22.839Z,8.10
2022-09-13T07:13:54.456Z,8.63
2022-09-13T07:16:23.404Z,8.35
2022-09-13T07:18:54.770Z,7.85
2022-09-13T07:21:22.443Z,8.75
2022-09-13T07:23:49.540Z,9.00
2022-09-13T07:26:16.454Z,7.68
2022-09-13T07:28:44.988Z,8.70
2022-09-13T07:33:43.108Z,7.72
2022-09-13T07:36:11.916Z,9.85
2022-09-13T07:38:40.323Z,8.88
2022-09-13T07:41:09.312Z,9.07
2022-09-13T07:43:36.641Z,9.07
2022-09-13T07:46:08.752Z,9.38
2022-09-13T07:48:37.369Z,8.20
2022-09-13T07:53:31.981Z,10.63
2022-09-13T07:56:20.914Z,10.65
2022-09-13T07:58:49.341Z,9.00
2022-09-13T08:03:43.220Z,9.35
2022-09-13T08:06:10.469Z,8.98
2022-09-13T08:08:37.860Z,10.02
2022-09-13T08:11:06.703Z,10.07
2022-09-13T08:13:33.648Z,9.90
2022-09-13T08:16:05.196Z,9.68
2022-09-13T08:18:32.397Z,11.18
2022-09-13T08:21:00.031Z,10.27
2022-09-13T08:23:27.269Z,11.13
2022-09-13T08:25:54.193Z,11.00
2022-09-13T08:28:26.890Z,12.13
2022-09-13T08:30:54.496Z,11.50
2022-09-13T08:33:21.222Z,11.82
2022-09-13T08:35:52.645Z,10.50
2022-09-13T08:38:19.769Z,11.35
2022-09-13T08:40:51.276Z,10.75
2022-09-13T08:43:41.962Z,11.05
2022-09-13T08:46:23.983Z,11.65
2022-09-13T08:48:53.043Z,10.07
2022-09-13T08:51:29.279Z,10.75
2022-09-13T08:53:57.683Z,11.90
2022-09-13T08:56:36.763Z,12.63
2022-09-13T08:59:15.593Z,10.27
2022-09-13T09:01:51.344Z,13.00
2022-09-13T09:04:20.655Z,10.07
2022-09-13T09:06:47.415Z,11.85
2022-09-13T09:09:17.606Z,11.32
2022-09-13T09:11:53.333Z,11.73
2022-09-13T09:14:32.395Z,11.10
2022-09-13T09:17:02.515Z,11.02
2022-09-13T09:19:38.540Z,12.43
2022-09-13T09:22:17.849Z,10.70
2022-09-13T09:24:47.242Z,10.38
2022-09-13T09:27:19.036Z,11.25
2022-09-13T09:29:48.180Z,12.38
2022-09-13T09:32:39.643Z,12.57
2022-09-13T09:35:31.555Z,11.30
2022-09-13T09:38:37.880Z,10.30
2022-09-13T09:41:10.260Z,11.93
2022-09-13T09:43:46.148Z,9.02
2022-09-13T09:46:15.479Z,10.93
2022-09-13T09:48:46.355Z,10.43
2022-09-13T09:51:14.196Z,10.50
2022-09-13T09:53:48.012Z,11.45
2022-09-13T09:56:31.188Z,11.02
2022-09-13T09:58:57.734Z,10.88
2022-09-13T10:01:32.789Z,10.55
2022-09-13T10:04:05.413Z,9.10
2022-09-13T10:06:32.580Z,9.10
2022-09-13T10:09:05.536Z,9.75
2022-09-13T10:11:43.993Z,10.60
2022-09-13T10:17:29.180Z,9.55
2022-09-13T10:20:15.303Z,10.35
2022-09-13T10:22:43.138Z,10.35
2022-09-13T10:25:22.457Z,10.65
2022-09-13T10:27:52.380Z,10.32
2022-09-13T10:30:36.891Z,10.40
2022-09-13T10:33:04.225Z,10.00
2022-09-13T10:35:31.066Z,10.05
2022-09-13T10:37:57.874Z,9.68
2022-09-13T10:40:30.933Z,8.73
2022-09-13T10:42:59.154Z,8.52
2022-09-13T10:45:27.863Z,8.18
2022-09-13T10:47:57.337Z,8.98
2022-09-13T10:50:27.007Z,8.18
2022-09-13T10:52:58.911Z,7.43
2022-09-13T10:55:34.922Z,6.82
2022-09-13T10:58:01.416Z,5.22
2022-09-13T11:00:48.196Z,5.93
2022-09-13T11:03:27.261Z,5.70
2022-09-13T11:06:21.011Z,5.97
2022-09-13T11:09:13.846Z,7.25
2022-09-13T11:11:47.301Z,5.45
2022-09-13T11:14:22.952Z,8.75
2022-09-13T11:17:04.885Z,8.57
2022-09-13T11:19:45.017Z,9.07
2022-09-13T11:22:26.761Z,8.85
2022-09-13T11:25:15.191Z,10.48
2022-09-13T11:28:00.489Z,8.52
2022-09-13T11:30:30.172Z,9.20
2022-09-13T11:33:22.247Z,10.43
2022-09-13T11:35:52.036Z,9.20
2022-09-13T11:38:49.659Z,9.77
2022-09-13T11:41:28.302Z,10.18
2022-09-13T11:44:22.467Z,11.95
2022-09-13T11:46:54.818Z,12.82
2022-09-13T11:49:40.239Z,11.57
2022-09-13T11:52:35.901Z,12.32
2022-09-13T11:55:16.451Z,13.90
2022-09-13T11:57:48.498Z,14.32
2022-09-13T12:00:24.212Z,13.93
2022-09-13T12:03:18.976Z,14.25
2022-09-13T12:05:57.938Z,12.48
2022-09-13T12:08:27.294Z,10.85
2022-09-13T12:11:11.814Z,10.18
2022-09-13T12:14:03.036Z,8.80
2022-09-13T12:16:39.279Z,7.63
2022-09-13T12:19:12.586Z,8.73
2022-09-13T12:21:41.204Z,7.57
2022-09-13T12:24:18.495Z,7.13
2022-09-13T12:26:51.195Z,6.78
2022-09-13T12:29:32.839Z,6.53
2022-09-13T12:32:03.401Z,5.13
2022-09-13T12:34:44.639Z,6.05
2022-09-13T12:37:53.407Z,6.80
2022-09-13T12:40:32.249Z,6.53
2022-09-13T12:43:24.212Z,5.55
2022-09-13T12:46:02.407Z,6.30
2022-09-13T12:49:07.937Z,5.50
2022-09-13T12:51:53.334Z,5.20
2022-09-13T12:54:43.522Z,5.38
2022-09-13T12:57:33.828Z,5.57
2022-09-13T13:00:19.913Z,4.88
2022-09-13T13:02:53.831Z,4.57
2022-09-13T13:05:31.122Z,4.68
2022-09-13T13:08:20.430Z,4.80
2022-09-13T13:11:06.728Z,4.90
2022-09-13T13:13:42.588Z,3.70
2022-09-13T13:16:33.136Z,3.17
2022-09-13T13:19:05.419Z,2.03
2022-09-13T13:21:40.399Z,2.15
2022-09-13T13:24:16.298Z,1.50
2022-09-13T13:26:44.603Z,1.60
2022-09-13T13:29:24.803Z,1.30
2022-09-13T13:31:57.429Z,1.60
2022-09-13T13:34:24.071Z,1.10
2022-09-13T13:37:14.643Z,1.05
2022-09-13T13:39:48.220Z,1.17
2022-09-13T13:42:27.577Z,1.45
2022-09-13T13:44:54.056Z,1.90
2022-09-13T13:47:20.570Z,1.35
2022-09-13T13:49:52.626Z,0.90
2022-09-13T13:52:22.595Z,0.88
2022-09-13T13:54:55.237Z,0.80
2022-09-13T13:57:33.910Z,0.90
2022-09-13T14:00:21.766Z,0.90
2022-09-13T14:02:53.452Z,0.90
2022-09-13T14:05:29.157Z,1.00
2022-09-13T14:08:28.981Z,1.00
2022-09-13T14:11:07.516Z,0.90
2022-09-13T14:13:56.084Z,0.73
2022-09-13T14:16:24.822Z,1.25
2022-09-13T14:19:02.949Z,0.80
2022-09-13T14:21:31.044Z,0.70
2022-09-13T14:24:09.615Z,0.80
2022-09-13T14:26:36.895Z,0.77
2022-09-13T14:29:08.237Z,0.98
2022-09-13T14:31:35.980Z,0.80
2022-09-13T14:34:02.908Z,0.70
2022-09-13T14:36:29.483Z,0.90
2022-09-13T14:39:00.217Z,1.00
2022-09-13T14:41:35.549Z,1.42
2022-09-13T14:44:28.363Z,0.77
2022-09-13T14:47:05.300Z,0.77
2022-09-13T14:49:36.553Z,0.80
2022-09-13T14:52:07.152Z,0.82
2022-09-13T14:54:48.592Z,0.90
2022-09-13T14:57:22.599Z,0.80
2022-09-13T14:59:51.707Z,0.65
2022-09-13T15:02:23.239Z,0.82
2022-09-13T15:05:00.703Z,1.00
2022-09-13T15:07:35.997Z,1.13
2022-09-13T15:10:10.877Z,1.88
2022-09-13T15:12:37.915Z,0.90
2022-09-13T15:15:27.089Z,0.98
2022-09-13T15:17:56.626Z,0.68
2022-09-13T15:20:24.739Z,0.85
2022-09-13T15:22:53.597Z,0.88
2022-09-13T15:25:28.227Z,0.70
2022-09-13T15:27:56.719Z,0.70
2022-09-13T15:30:39.443Z,0.85
2022-09-13T15:33:09.249Z,0.90
2022-09-13T15:35:41.668Z,0.60
2022-09-13T15:38:31.701Z,0.65
2022-09-13T15:40:58.308Z,0.80
2022-09-13T15:43:24.988Z,0.82
2022-09-13T15:45:51.615Z,0.73
2022-09-13T15:48:30.873Z,0.90
2022-09-13T15:51:12.787Z,0.90
2022-09-13T15:53:41.275Z,0.80
2022-09-13T15:58:36.385Z,0.80
2022-09-13T16:01:04.028Z,0.70
2022-09-13T16:03:30.891Z,0.90
2022-09-13T16:05:58.058Z,0.93
2022-09-13T16:08:24.681Z,0.82
2022-09-13T16:10:51.655Z,0.63
2022-09-13T16:13:18.333Z,0.80
2022-09-13T16:15:44.957Z,0.93
2022-09-13T16:18:11.693Z,0.70
2022-09-13T16:20:38.288Z,0.82
2022-09-13T16:23:04.896Z,1.00
2022-09-13T16:25:31.752Z,1.00
2022-09-13T16:27:59.308Z,0.63
2022-09-13T16:30:27.824Z,0.87
2022-09-13T16:32:54.515Z,0.80
2022-09-13T16:35:21.124Z,0.75
2022-09-13T16:37:51.490Z,0.88
2022-09-13T16:40:19.158Z,0.65
2022-09-13T16:42:46.062Z,0.88
2022-09-13T16:45:13.114Z,0.80
2022-09-13T16:47:41.242Z,0.70
2022-09-13T16:50:08.616Z,1.13
2022-09-13T16:52:35.848Z,0.60
2022-09-13T16:55:04.037Z,0.70
2022-09-13T16:57:31.118Z,0.73
2022-09-13T16:59:58.905Z,0.93
2022-09-13T17:02:26.696Z,0.82
2022-09-13T17:04:53.552Z,0.82
2022-09-13T17:07:20.401Z,0.70
2022-09-13T17:09:47.219Z,0.50
2022-09-13T17:12:14.183Z,0.80
2022-09-13T17:14:47.293Z,0.60
2022-09-13T17:17:16.025Z,0.80
2022-09-13T17:19:43.409Z,0.63
2022-09-13T17:22:11.181Z,0.60
2022-09-13T17:24:38.671Z,0.55
2022-09-13T17:27:06.836Z,0.60
2022-09-13T17:29:34.940Z,0.68
2022-09-13T17:32:03.316Z,0.75
2022-09-13T17:34:32.425Z,0.90
2022-09-13T17:36:59.053Z,0.65
2022-09-13T17:39:25.996Z,0.60
2022-09-13T17:41:52.620Z,0.70
2022-09-13T17:44:19.216Z,0.65
2022-09-13T17:46:45.886Z,0.63
2022-09-13T17:49:12.723Z,2.30
2022-09-13T17:51:39.276Z,0.60
2022-09-13T17:54:09.703Z,0.68
2022-09-13T17:56:39.025Z,0.73
2022-09-13T17:59:14.898Z,0.50
2022-09-13T18:01:44.323Z,0.68
2022-09-13T18:04:11.809Z,0.60
2022-09-13T18:06:40.932Z,0.80
2022-09-13T18:09:07.585Z,0.40
2022-09-13T18:11:34.260Z,0.60
2022-09-13T18:14:00.825Z,0.68
2022-09-13T18:16:28.530Z,0.90
2022-09-13T18:18:56.002Z,0.70
2022-09-13T18:21:24.646Z,0.73
2022-09-13T18:23:53.512Z,0.65
2022-09-13T18:26:22.387Z,0.80
2022-09-13T18:28:54.397Z,1.10
2022-09-13T18:31:21.087Z,0.50
2022-09-13T18:33:48.119Z,0.80
2022-09-13T18:36:16.631Z,0.80
2022-09-13T18:41:20.202Z,0.60
2022-09-13T18:43:52.931Z,0.90
2022-09-13T18:46:24.963Z,0.52
2022-09-13T18:48:54.268Z,0.80
2022-09-13T18:51:24.006Z,0.90
2022-09-13T18:53:51.177Z,0.75
2022-09-13T18:56:20.779Z,0.68
2022-09-13T18:58:47.742Z,0.95
2022-09-13T19:01:17.109Z,1.20
2022-09-13T19:03:54.752Z,0.60
2022-09-13T19:06:30.042Z,1.60
2022-09-13T19:08:58.102Z,0.77
2022-09-13T19:16:40.124Z,1.10
2022-09-13T19:19:06.753Z,1.10
2022-09-13T19:21:33.625Z,1.48
2022-09-13T19:24:03.223Z,1.23
2022-09-13T19:26:36.057Z,0.93
2022-09-13T19:29:08.192Z,1.10
2022-09-13T19:31:43.024Z,1.38
2022-09-13T19:34:10.836Z,0.90
2022-09-13T19:36:39.319Z,1.10
2022-09-13T19:41:32.942Z,1.00
2022-09-13T19:44:00.955Z,2.20
2022-09-13T19:46:31.682Z,1.10
2022-09-13T19:48:59.783Z,1.10
2022-09-13T19:51:29.051Z,1.33
2022-09-13T19:53:57.874Z,1.20
2022-09-13T19:56:30.292Z,1.30
2022-09-13T19:58:57.840Z,1.20
2022-09-13T20:01:36.072Z,0.95
2022-09-13T20:04:05.441Z,1.00
2022-09-13T20:06:38.468Z,1.55
2022-09-13T20:09:05.907Z,1.40
2022-09-13T20:11:33.190Z,1.80
2022-09-13T20:14:00.778Z,1.42
2022-09-13T20:16:32.720Z,1.10
2022-09-13T20:18:59.788Z,1.05
2022-09-13T20:21:28.122Z,1.30
2022-09-13T20:24:00.707Z,1.25
2022-09-13T20:26:27.483Z,0.90
2022-09-13T20:29:00.137Z,1.20
2022-09-13T20:31:27.327Z,1.20
2022-09-13T20:33:55.509Z,1.42
2022-09-13T20:36:22.765Z,0.80
2022-09-13T20:38:50.232Z,1.13
2022-09-13T20:41:17.123Z,1.30
2022-09-13T20:43:43.673Z,1.70
2022-09-13T20:46:12.574Z,1.35
2022-09-13T20:48:39.819Z,1.05
2022-09-13T20:51:17.169Z,1.02
2022-09-13T20:53:44.176Z,1.10
2022-09-13T20:56:16.622Z,1.20
2022-09-13T20:58:44.405Z,0.98
2022-09-13T21:01:20.112Z,0.90
2022-09-13T21:03:49.169Z,1.23
2022-09-13T21:06:16.583Z,0.90
2022-09-13T21:08:43.827Z,0.88
2022-09-13T21:11:16.167Z,1.10
2022-09-13T21:13:54.833Z,1.10
2022-09-13T21:16:23.913Z,1.63
2022-09-13T21:18:51.694Z,1.42
2022-09-13T21:21:24.083Z,0.90
2022-09-13T21:23:51.232Z,1.00
2022-09-13T21:26:20.443Z,0.80
2022-09-13T21:28:47.496Z,1.20
2022-09-13T21:31:21.454Z,0.93
2022-09-13T21:33:48.942Z,1.30
2022-09-13T21:36:15.585Z,0.90
2022-09-13T21:38:42.220Z,1.10
2022-09-13T21:41:14.365Z,0.80
2022-09-13T21:43:41.937Z,0.90
2022-09-13T21:46:17.041Z,0.85
2022-09-13T21:48:47.260Z,1.00
2022-09-13T21:51:17.474Z,1.10
2022-09-13T21:53:45.646Z,1.00
2022-09-13T21:56:14.928Z,1.15
2022-09-13T21:58:41.594Z,0.90
2022-09-13T22:01:11.440Z,0.80
2022-09-13T22:03:39.602Z,1.33
2022-09-13T22:06:06.924Z,0.95
2022-09-13T22:08:36.948Z,1.10
2022-09-13T22:11:15.115Z,1.00
2022-09-13T22:13:45.529Z,1.08
2022-09-13T22:16:18.211Z,0.93
2022-09-13T22:18:45.783Z,1.10
2022-09-13T22:21:15.988Z,1.02
2022-09-13T22:23:43.667Z,1.00
2022-09-13T22:26:15.112Z,0.90
2022-09-13T22:28:42.200Z,1.00
2022-09-13T22:31:13.916Z,1.00
2022-09-13T22:33:40.785Z,0.90
2022-09-13T22:36:09.479Z,1.20
2022-09-13T22:38:37.657Z,1.00
2022-09-13T22:41:10.688Z,1.13
2022-09-13T22:43:38.011Z,0.80
2022-09-13T22:46:19.555Z,0.85
2022-09-13T22:48:46.740Z,1.05
2022-09-13T22:51:15.069Z,1.00
2022-09-13T22:53:42.890Z,1.63
2022-09-13T22:56:18.088Z,0.98
2022-09-13T22:58:45.020Z,1.05
2022-09-13T23:01:16.968Z,1.15
2022-09-13T23:03:45.065Z,1.00
2022-09-13T23:06:13.291Z,1.20
2022-09-13T23:08:40.235Z,1.00
2022-09-13T23:11:12.003Z,1.20
2022-09-13T23:13:38.904Z,1.00
2022-09-13T23:16:07.180Z,0.70
2022-09-13T23:18:35.879Z,1.00
2022-09-13T23:21:02.666Z,1.15
2022-09-13T23:23:29.304Z,0.85
2022-09-13T23:25:55.863Z,1.10
2022-09-13T23:28:22.504Z,1.20
2022-09-13T23:30:49.032Z,1.17
2022-09-13T23:33:16.397Z,1.08
2022-09-13T23:35:42.930Z,0.98
2022-09-13T23:38:10.752Z,1.02
2022-09-13T23:40:37.304Z,1.20
2022-09-13T23:43:04.003Z,1.58
2022-09-13T23:45:31.247Z,1.33
2022-09-13T23:47:57.872Z,0.93
2022-09-13T23:50:24.473Z,1.23
2022-09-13T23:52:51.385Z,1.13
2022-09-13T23:55:18.142Z,0.90
2022-09-13T23:57:44.932Z,1.10
